Time;durP1;ratioP1;P1;durP2;ratioP2;P2;SDS_P1;SDS_P2;PMS_P1;PMS_P2;Temp;Humidity;BMP_temperature;BMP_pressure;BME280_temperature;BME280_humidity;BME280_pressure;Samples;Min_cycle;Max_cycle;Signal;HPM_P1;HPM_P2
2023/01/18 00:01:26;;;;;;;11.77;6.80;;;;;;;-4.00;100.00;95863.78;4216622;28;20050;-73
2023/01/18 00:03:26;;;;;;;10.40;6.43;;;;;;;-3.92;100.00;95864.75;4216932;28;20140;-73
2023/01/18 00:05:26;;;;;;;15.10;7.00;;;;;;;-3.85;100.00;95865.72;4218698;28;20458;-73
2023/01/18 00:07:27;;;;;;;9.57;6.28;;;;;;;-3.81;100.00;95865.78;4218116;28;20086;-73
2023/01/18 00:09:27;;;;;;;10.05;5.97;;;;;;;-3.79;100.00;95868.94;4213659;28;20382;-73
2023/01/18 00:11:27;;;;;;;14.80;6.45;;;;;;;-3.70;100.00;95873.03;4208999;28;20488;-73
2023/01/18 00:13:28;;;;;;;12.68;6.47;;;;;;;-3.58;100.00;95874.84;4204107;28;20048;-73
2023/01/18 00:15:30;;;;;;;11.77;7.72;;;;;;;-3.54;100.00;95872.25;4212783;28;20366;-73
2023/01/18 00:17:30;;;;;;;12.25;6.80;;;;;;;-3.52;100.00;95870.75;4208420;28;20094;-73
2023/01/18 00:19:32;;;;;;;14.82;7.13;;;;;;;-3.55;100.00;95874.16;4211940;28;20040;-73
2023/01/18 00:21:32;;;;;;;11.55;6.75;;;;;;;-3.50;100.00;95876.59;4210705;28;20063;-73
2023/01/18 00:23:33;;;;;;;10.38;6.72;;;;;;;-3.44;100.00;95871.72;4204559;28;20070;-73
2023/01/18 00:25:33;;;;;;;12.13;6.95;;;;;;;-3.47;100.00;95865.09;4206055;28;20320;-73
2023/01/18 00:27:34;;;;;;;10.70;7.30;;;;;;;-3.52;100.00;95859.94;4206370;28;20051;-73
2023/01/18 00:29:34;;;;;;;9.90;6.22;;;;;;;-3.53;100.00;95869.19;4214810;28;20054;-73
2023/01/18 00:31:34;;;;;;;12.77;6.85;;;;;;;-3.56;100.00;95860.97;4218213;28;20063;-73
2023/01/18 00:33:35;;;;;;;9.35;6.00;;;;;;;-3.62;100.00;95865.91;4205439;28;20044;-73
2023/01/18 00:35:35;;;;;;;16.40;7.78;;;;;;;-3.69;100.00;95863.78;4217750;28;20043;-73
2023/01/18 00:37:36;;;;;;;15.20;8.02;;;;;;;-3.75;100.00;95862.47;4219477;28;20043;-73
2023/01/18 00:39:36;;;;;;;15.18;7.88;;;;;;;-3.75;100.00;95870.59;4205431;28;20327;-73
2023/01/18 00:43:37;;;;;;;11.20;6.88;;;;;;;-3.70;100.00;95858.75;4208611;28;20567;-73
2023/01/18 00:43:56;;;;;;;11.65;6.85;;;;;;;-3.61;100.00;95862.06;4205444;28;20592;-73
2023/01/18 00:45:57;;;;;;;14.38;7.40;;;;;;;-3.54;100.00;95867.63;4205286;28;20051;-73
2023/01/18 00:47:57;;;;;;;14.80;8.60;;;;;;;-3.52;100.00;95864.56;4207847;28;20028;-73
2023/01/18 00:49:57;;;;;;;17.00;8.50;;;;;;;-3.52;100.00;95859.16;4208076;28;20051;-73
2023/01/18 00:51:58;;;;;;;15.48;8.63;;;;;;;-3.50;100.00;95871.19;4220347;28;20525;-73
2023/01/18 00:53:58;;;;;;;13.65;7.93;;;;;;;-3.47;100.00;95862.41;4219632;27;20131;-73
2023/01/18 00:55:58;;;;;;;15.30;8.18;;;;;;;-3.44;100.00;95863.59;4219165;28;20048;-73
2023/01/18 00:57:59;;;;;;;12.38;7.05;;;;;;;-3.46;100.00;95863.19;4205177;28;20059;-73
2023/01/18 00:59:59;;;;;;;13.45;7.60;;;;;;;-3.49;100.00;95867.34;4215809;28;20366;-73
2023/01/18 01:01:59;;;;;;;13.55;7.43;;;;;;;-3.53;100.00;95873.81;4220716;28;20147;-73
2023/01/18 01:06:43;;;;;;;15.82;6.65;;;;;;;-3.54;100.00;95869.56;4213738;28;20035;-73
2023/01/18 01:08:48;;;;;;;9.95;6.38;;;;;;;-3.52;100.00;95873.47;4215035;28;20477;-73
2023/01/18 01:10:51;;;;;;;10.68;6.65;;;;;;;-3.51;100.00;95880.44;4205229;28;20392;-73
2023/01/18 01:26:46;;;;;;;11.95;5.78;;;;;;;-3.43;100.00;95884.09;4204361;28;20073;-73
2023/01/18 01:28:51;;;;;;;11.73;6.20;;;;;;;-3.40;100.00;95891.50;4210324;28;20499;-73
2023/01/18 01:30:56;;;;;;;9.98;5.45;;;;;;;-3.39;100.00;95890.38;4213736;28;20044;-73
2023/01/18 01:32:56;;;;;;;13.52;7.75;;;;;;;-3.37;100.00;95895.44;4206091;28;20047;-73
2023/01/18 01:34:57;;;;;;;11.07;6.30;;;;;;;-3.34;100.00;95894.72;4215670;27;20032;-73
2023/01/18 01:36:57;;;;;;;13.57;7.07;;;;;;;-3.33;100.00;95901.69;4219634;28;20188;-73
2023/01/18 01:38:57;;;;;;;12.77;6.70;;;;;;;-3.34;100.00;95890.09;4212938;28;20301;-73
2023/01/18 01:41:06;;;;;;;16.33;7.38;;;;;;;-3.36;100.00;95894.28;4209019;28;20529;-73
2023/01/18 01:43:12;;;;;;;13.43;7.72;;;;;;;-3.37;100.00;95898.13;4202816;28;20404;-73
2023/01/18 01:45:12;;;;;;;18.25;8.20;;;;;;;-3.33;100.00;95899.00;4211102;27;20064;-73
2023/01/18 01:47:25;;;;;;;18.55;9.05;;;;;;;-3.31;100.00;95902.13;4218295;28;20117;-73
2023/01/18 01:49:32;;;;;;;20.05;8.00;;;;;;;-3.24;100.00;95900.38;4207880;28;20051;-73
2023/01/18 01:51:35;;;;;;;16.77;8.60;;;;;;;-3.25;100.00;95901.50;4212074;28;20439;-73
2023/01/18 01:53:35;;;;;;;;;;;;;;;-3.27;100.00;95895.69;4218322;28;20039;-73
2023/01/18 01:55:39;;;;;;;11.20;6.28;;;;;;;-3.32;100.00;95889.75;4212066;28;20250;-73
2023/01/18 01:57:48;;;;;;;12.50;7.03;;;;;;;-3.36;100.00;95891.59;4204757;28;20048;-73
2023/01/18 01:59:51;;;;;;;15.23;7.40;;;;;;;-3.40;100.00;95888.78;4213989;28;20039;-73
2023/01/18 02:01:51;;;;;;;15.57;8.55;;;;;;;-3.47;100.00;95899.47;4214992;28;20055;-73
2023/01/18 02:03:54;;;;;;;15.60;8.35;;;;;;;-3.49;100.00;95888.19;4214651;28;20467;-73
2023/01/18 02:06:00;;;;;;;;;;;;;;;-3.47;100.00;95892.13;4213343;28;20109;-73
2023/01/18 02:08:02;;;;;;;17.63;7.72;;;;;;;-3.49;100.00;95891.69;4203966;28;19978;-73
2023/01/18 02:10:04;;;;;;;12.32;7.13;;;;;;;-3.44;100.00;95901.44;4206857;27;20074;-73
2023/01/18 02:12:04;;;;;;;14.23;7.60;;;;;;;-3.44;100.00;95902.22;4212571;28;20039;-73
2023/01/18 02:14:09;;;;;;;13.07;6.75;;;;;;;-3.45;100.00;95897.97;4213238;28;20020;-73
2023/01/18 02:16:16;;;;;;;13.85;7.63;;;;;;;-3.40;100.00;95900.38;4212984;28;20035;-73
2023/01/18 02:18:40;;;;;;;12.63;7.45;;;;;;;-3.34;100.00;95900.91;4207167;28;20036;-73
2023/01/18 02:21:05;;;;;;;14.65;7.78;;;;;;;-3.30;100.00;95903.72;4215644;28;20479;-73
2023/01/18 02:23:28;;;;;;;13.70;7.22;;;;;;;-3.28;100.00;95893.31;4204117;28;20423;-73
2023/01/18 02:26:02;;;;;;;13.20;6.53;;;;;;;-3.20;100.00;95897.75;4208938;28;20051;-73
2023/01/18 02:28:14;;;;;;;15.57;7.03;;;;;;;-3.13;100.00;95896.00;4210973;28;20485;-73
2023/01/18 02:30:31;;;;;;;12.40;7.18;;;;;;;-3.09;100.00;95903.41;4204975;28;20429;-73
2023/01/18 02:32:38;;;;;;;13.43;7.63;;;;;;;-3.09;100.00;95900.72;4210897;28;20558;-73
2023/01/18 02:34:46;;;;;;;13.75;8.38;;;;;;;-3.14;100.00;95899.84;4207336;28;20054;-73
2023/01/18 02:37:05;;;;;;;13.32;7.38;;;;;;;-3.13;100.00;95906.84;4204925;28;20346;-73
2023/01/18 02:39:22;;;;;;;15.65;8.13;;;;;;;-3.16;100.00;95901.31;4208044;28;20040;-73
2023/01/18 02:46:34;;;;;;;10.18;7.15;;;;;;;-3.19;100.00;95899.34;4205685;28;20355;-73
2023/01/18 02:48:39;;;;;;;10.73;6.45;;;;;;;-3.18;100.00;95903.59;4206395;28;20487;-73
2023/01/18 02:50:40;;;;;;;12.25;7.82;;;;;;;-3.12;100.00;95905.69;4206401;28;20123;-73
2023/01/18 02:52:46;;;;;;;13.43;7.38;;;;;;;-3.05;100.00;95915.09;4207640;28;20448;-73
2023/01/18 02:54:46;;;;;;;13.55;7.97;;;;;;;-3.04;100.00;95906.63;4208832;28;20107;-73
2023/01/18 02:56:51;;;;;;;13.52;6.90;;;;;;;-3.03;100.00;95916.31;4204308;28;20477;-73
2023/01/18 02:58:54;;;;;;;16.58;7.55;;;;;;;-3.03;100.00;95910.91;4205457;27;20036;-73
2023/01/18 03:01:12;;;;;;;12.63;7.07;;;;;;;-3.06;100.00;95906.22;4209407;28;20297;-73
2023/01/18 03:03:15;;;;;;;13.02;6.65;;;;;;;-3.08;100.00;95913.09;4204197;28;20046;-73
2023/01/18 03:05:17;;;;;;;14.48;7.63;;;;;;;-3.07;100.00;95904.63;4206199;28;20118;-73
2023/01/18 03:07:30;;;;;;;12.40;8.27;;;;;;;-3.05;100.00;95907.78;4204220;28;20039;-73
2023/01/18 03:09:30;;;;;;;12.88;7.75;;;;;;;-3.08;100.00;95913.88;4207376;28;20052;-73
2023/01/18 03:11:53;;;;;;;12.90;6.93;;;;;;;-3.06;100.00;95916.22;4205681;28;20054;-73
2023/01/18 03:14:39;;;;;;;15.52;7.68;;;;;;;-3.07;100.00;95912.72;4204919;28;20087;-73
2023/01/18 03:16:57;;;;;;;13.93;7.60;;;;;;;-3.11;100.00;95909.97;4181795;28;20040;-73
2023/01/18 03:19:04;;;;;;;13.35;8.13;;;;;;;-3.09;100.00;95904.19;4208111;28;20123;-73
2023/01/18 03:21:07;;;;;;;12.20;7.95;;;;;;;-3.10;100.00;95910.75;4212260;28;20051;-73
2023/01/18 03:25:43;;;;;;;12.55;8.20;;;;;;;-3.08;100.00;95913.88;4206582;28;20050;-73
2023/01/18 03:35:02;;;;;;;12.02;7.63;;;;;;;-3.11;100.00;95918.06;4204061;28;20102;-73
2023/01/18 03:37:09;;;;;;;15.60;7.93;;;;;;;-3.06;100.00;95918.94;4208358;28;20438;-73
2023/01/18 03:39:15;;;;;;;12.95;7.50;;;;;;;-3.04;100.00;95922.88;4210949;28;20043;-73
2023/01/18 03:41:18;;;;;;;13.55;8.18;;;;;;;-3.02;100.00;95922.50;4210273;28;20051;-73
2023/01/18 03:43:23;;;;;;;12.38;7.72;;;;;;;-2.99;100.00;95928.00;4216426;28;20039;-73
2023/01/18 03:45:32;;;;;;;15.88;7.38;;;;;;;-2.95;100.00;95925.38;4211280;28;20043;-73
2023/01/18 03:47:33;;;;;;;11.90;7.18;;;;;;;-2.92;100.00;95928.16;4200692;28;20080;-73
2023/01/18 03:49:34;;;;;;;12.68;7.22;;;;;;;-2.87;100.00;95930.59;4209662;28;20597;-73
2023/01/18 03:52:09;;;;;;;11.50;7.30;;;;;;;-2.83;100.00;95933.38;4215593;28;20067;-73
2023/01/18 03:54:28;;;;;;;12.13;7.05;;;;;;;-2.82;100.00;95937.63;4201124;28;20044;-73
2023/01/18 03:56:42;;;;;;;11.98;7.30;;;;;;;-2.85;100.00;95936.44;4207227;28;20150;-73
2023/01/18 03:58:44;;;;;;;10.52;6.93;;;;;;;-2.88;100.00;95941.78;4205053;28;20047;-73
2023/01/18 04:00:45;;;;;;;11.48;6.45;;;;;;;-2.90;100.00;95944.81;4202847;28;20392;-73
2023/01/18 04:02:48;;;;;;;10.48;7.57;;;;;;;-2.88;100.00;95941.78;4209649;28;20038;-73
2023/01/18 04:04:48;;;;;;;;;;;;;;;-2.83;100.00;95944.19;4213811;28;20039;-73
2023/01/18 04:06:48;;;;;;;11.07;6.68;;;;;;;-2.78;100.00;95949.34;4208133;28;19958;-73
2023/01/18 04:08:49;;;;;;;13.43;6.70;;;;;;;-2.77;100.00;95942.00;4215650;28;20123;-73
2023/01/18 04:10:49;;;;;;;11.82;6.75;;;;;;;-2.77;100.00;95947.41;4207298;28;20430;-73
2023/01/18 04:12:50;;;;;;;11.63;7.18;;;;;;;-2.78;100.00;95948.56;4203916;28;20035;-73
2023/01/18 04:14:51;;;;;;;14.85;7.10;;;;;;;-2.76;100.00;95947.06;4206429;28;20058;-74
2023/01/18 04:16:51;;;;;;;13.35;7.45;;;;;;;-2.75;100.00;95943.22;4202148;28;20412;-73
2023/01/18 04:18:52;;;;;;;12.40;7.18;;;;;;;-2.72;100.00;95947.16;4205089;28;20036;-73
2023/01/18 04:20:55;;;;;;;11.32;6.50;;;;;;;-2.71;100.00;95949.50;4217269;28;20064;-73
2023/01/18 04:22:55;;;;;;;10.15;6.53;;;;;;;-2.66;100.00;95953.84;4216358;28;20039;-73
2023/01/18 04:24:55;;;;;;;10.63;6.45;;;;;;;-2.68;100.00;95943.38;4203765;28;20115;-73
2023/01/18 04:26:56;;;;;;;11.93;7.45;;;;;;;-2.65;100.00;95950.00;4202721;28;20032;-73
2023/01/18 04:28:56;;;;;;;10.93;6.82;;;;;;;-2.66;100.00;95948.44;4204977;28;20096;-73
2023/01/18 04:30:56;;;;;;;13.88;7.57;;;;;;;-2.65;100.00;95945.38;4205099;28;20048;-73
2023/01/18 04:32:57;;;;;;;14.20;6.35;;;;;;;-2.63;100.00;95940.41;4202184;28;20048;-73
2023/01/18 04:34:57;;;;;;;10.98;6.75;;;;;;;-2.63;100.00;95945.03;4216055;28;20048;-73
2023/01/18 04:36:58;;;;;;;11.50;6.13;;;;;;;-2.62;100.00;95952.78;4216547;28;20067;-73
2023/01/18 04:38:58;;;;;;;13.48;6.70;;;;;;;-2.62;100.00;95944.66;4216594;28;20047;-73
2023/01/18 04:41:05;;;;;;;10.27;6.22;;;;;;;-2.59;100.00;95952.06;4214778;28;20107;-73
2023/01/18 04:43:05;;;;;;;8.60;5.65;;;;;;;-2.58;100.00;95961.75;4206049;28;20028;-73
2023/01/18 04:45:06;;;;;;;9.10;5.60;;;;;;;-2.58;100.00;95945.53;4205551;28;20036;-73
2023/01/18 04:47:06;;;;;;;10.68;6.10;;;;;;;-2.58;100.00;95948.22;4205531;28;20039;-73
2023/01/18 04:49:12;;;;;;;11.35;6.05;;;;;;;-2.58;100.00;95955.56;4212403;28;20484;-74
2023/01/18 04:51:13;;;;;;;10.50;6.55;;;;;;;-2.56;100.00;95959.50;4202038;28;20036;-74
2023/01/18 04:53:15;;;;;;;12.80;6.43;;;;;;;-2.56;100.00;95956.00;4201668;28;20113;-73
2023/01/18 04:55:15;;;;;;;12.02;6.90;;;;;;;-2.59;100.00;95957.50;4203840;28;20483;-73
2023/01/18 04:57:16;;;;;;;9.80;6.53;;;;;;;-2.59;100.00;95960.19;4202477;28;20362;-73
2023/01/18 04:59:16;;;;;;;11.20;6.38;;;;;;;-2.60;100.00;95957.84;4206625;28;20400;-73
2023/01/18 05:01:16;;;;;;;12.70;6.30;;;;;;;-2.61;100.00;95959.78;4216628;28;20142;-73
2023/01/18 05:03:17;;;;;;;13.32;7.47;;;;;;;-2.58;100.00;95969.09;4216464;28;20035;-73
2023/01/18 05:05:17;;;;;;;12.68;6.60;;;;;;;-2.60;100.00;95964.03;4215146;28;20040;-74
2023/01/18 05:07:17;;;;;;;11.77;6.80;;;;;;;-2.58;100.00;95969.88;4212927;28;20106;-73
2023/01/18 05:09:18;;;;;;;10.75;5.65;;;;;;;-2.56;100.00;95964.91;4205322;28;20123;-73
2023/01/18 05:11:22;;;;;;;12.05;6.47;;;;;;;-2.55;100.00;95971.13;4205773;28;20299;-73
2023/01/18 05:13:22;;;;;;;10.88;6.60;;;;;;;-2.53;100.00;95973.47;4210196;28;20505;-73
2023/01/18 05:15:22;;;;;;;12.80;6.57;;;;;;;-2.52;100.00;95969.63;4208105;28;20064;-73
2023/01/18 05:17:26;;;;;;;9.82;5.88;;;;;;;-2.53;100.00;95968.06;4221647;28;20047;-74
2023/01/18 05:19:29;;;;;;;10.95;6.30;;;;;;;-2.49;100.00;95982.44;4211863;28;20071;-73
2023/01/18 05:21:29;;;;;;;11.32;6.18;;;;;;;-2.48;100.00;95971.28;4206694;28;20040;-73
2023/01/18 05:23:29;;;;;;;11.65;5.68;;;;;;;-2.49;100.00;95972.38;4209533;28;20038;-73
2023/01/18 05:25:30;;;;;;;11.65;5.80;;;;;;;-2.45;100.00;95980.59;4208430;28;20044;-73
2023/01/18 05:27:31;;;;;;;10.10;5.80;;;;;;;-2.46;100.00;95977.13;4217164;28;20046;-73
2023/01/18 05:29:31;;;;;;;9.98;5.95;;;;;;;-2.41;100.00;95986.88;4218713;28;20080;-73
2023/01/18 05:31:31;;;;;;;11.50;5.70;;;;;;;-2.39;100.00;95990.81;4221191;27;20051;-73
2023/01/18 05:33:32;;;;;;;11.88;5.97;;;;;;;-2.39;100.00;95988.09;4211532;27;20312;-73
2023/01/18 05:35:32;;;;;;;10.20;5.43;;;;;;;-2.36;100.00;95992.81;4219541;28;20036;-73
2023/01/18 05:37:32;;;;;;;11.43;6.05;;;;;;;-2.34;100.00;95995.94;4218516;28;20094;-73
2023/01/18 05:39:33;;;;;;;11.68;6.43;;;;;;;-2.31;100.00;95999.88;4211413;28;20043;-73
2023/01/18 05:41:33;;;;;;;9.73;5.80;;;;;;;-2.31;100.00;96000.66;4220418;28;20064;-73
2023/01/18 05:43:33;;;;;;;11.70;5.63;;;;;;;-2.31;100.00;96006.06;4214083;27;20106;-73
2023/01/18 05:45:34;;;;;;;12.32;6.57;;;;;;;-2.31;100.00;96002.59;4221220;28;20079;-73
2023/01/18 05:47:34;;;;;;;13.50;7.07;;;;;;;-2.30;100.00;96015.75;4211014;28;20040;-73
2023/01/18 05:49:34;;;;;;;10.93;5.97;;;;;;;-2.28;100.00;96018.91;4210226;28;20071;-73
2023/01/18 05:51:35;;;;;;;10.77;5.65;;;;;;;-2.28;100.00;96028.94;4218683;28;20129;-73
2023/01/18 05:53:36;;;;;;;10.75;5.80;;;;;;;-2.27;100.00;96019.69;4212936;28;20298;-73
2023/01/18 05:55:36;;;;;;;9.75;6.25;;;;;;;-2.28;100.00;96021.59;4219045;28;20082;-73
2023/01/18 05:57:36;;;;;;;11.98;6.25;;;;;;;-2.26;100.00;96027.44;4212098;28;20590;-73
2023/01/18 05:59:37;;;;;;;13.18;5.47;;;;;;;-2.25;100.00;96030.94;4209334;28;20074;-73
2023/01/18 06:01:37;;;;;;;11.93;6.35;;;;;;;-2.23;100.00;96034.09;4216064;28;20054;-74
2023/01/18 06:03:39;;;;;;;12.05;6.43;;;;;;;-2.21;100.00;96041.88;4113639;27;20068;-73
2023/01/18 06:05:39;;;;;;;10.93;6.05;;;;;;;-2.20;100.00;96038.00;4211484;27;20535;-73
2023/01/18 06:07:41;;;;;;;10.85;5.90;;;;;;;-2.21;100.00;96041.88;4207358;28;20108;-73
2023/01/18 06:09:41;;;;;;;12.37;6.27;;;;;;;-2.21;100.00;96033.75;4207894;28;20399;-73
2023/01/18 06:11:41;;;;;;;12.63;6.55;;;;;;;-2.17;100.00;96037.28;4212670;28;20052;-73
2023/01/18 06:13:42;;;;;;;10.82;6.18;;;;;;;-2.18;100.00;96041.94;4203948;28;20074;-73
2023/01/18 06:15:42;;;;;;;10.73;5.85;;;;;;;-2.17;100.00;96048.13;4211587;28;20112;-73
2023/01/18 06:17:45;;;;;;;12.15;5.15;;;;;;;-2.17;100.00;96043.50;4219093;28;20079;-73
2023/01/18 06:19:46;;;;;;;9.45;5.00;;;;;;;-2.13;100.00;96043.59;4207717;28;20097;-73
2023/01/18 06:21:46;;;;;;;7.95;5.03;;;;;;;-2.12;100.00;96037.03;4214360;28;20048;-73
2023/01/18 06:23:47;;;;;;;11.27;5.30;;;;;;;-2.11;100.00;96050.22;4203806;28;20083;-73
2023/01/18 06:25:47;;;;;;;7.30;4.57;;;;;;;-2.08;100.00;96040.59;4205587;28;20078;-73
2023/01/18 06:27:47;;;;;;;8.35;3.97;;;;;;;-2.04;100.00;96055.00;4207088;28;20056;-73
2023/01/18 06:29:48;;;;;;;7.03;4.07;;;;;;;-2.05;100.00;96054.22;4206685;28;20091;-73
2023/01/18 06:31:49;;;;;;;7.63;4.20;;;;;;;-2.06;100.00;96051.88;4215660;28;20322;-73
2023/01/18 06:33:49;;;;;;;8.25;4.85;;;;;;;-2.05;100.00;96053.44;4203469;28;20056;-73
2023/01/18 06:35:49;;;;;;;6.28;4.15;;;;;;;-2.04;100.00;96068.56;4207195;28;20044;-73
2023/01/18 06:37:51;;;;;;;7.90;5.15;;;;;;;-2.01;100.00;96059.69;4208676;28;20047;-73
2023/01/18 06:39:51;;;;;;;10.52;4.47;;;;;;;-2.03;100.00;96060.06;4218675;28;20507;-73
2023/01/18 06:41:51;;;;;;;10.00;5.53;;;;;;;-2.01;100.00;96067.84;4208051;28;20123;-73
2023/01/18 06:43:52;;;;;;;9.40;4.82;;;;;;;-2.02;100.00;96067.06;4202568;28;20127;-73
2023/01/18 06:45:54;;;;;;;12.40;5.72;;;;;;;-2.03;100.00;96081.75;4213787;28;20071;-73
2023/01/18 06:47:54;;;;;;;9.73;5.20;;;;;;;-2.03;100.00;96078.25;4218546;27;20391;-73
2023/01/18 06:49:55;;;;;;;8.85;5.32;;;;;;;-2.00;100.00;96072.09;4219202;28;20032;-73
2023/01/18 06:51:55;;;;;;;10.65;5.40;;;;;;;-2.02;100.00;96080.59;4218085;28;20036;-73
2023/01/18 06:53:55;;;;;;;7.65;5.30;;;;;;;-1.98;100.00;96083.41;4217478;27;20387;-73
2023/01/18 06:55:58;;;;;;;13.80;5.95;;;;;;;-2.00;100.00;96086.44;4218003;28;20035;-73
2023/01/18 06:58:00;;;;;;;9.20;5.40;;;;;;;-2.00;100.00;96089.16;4210602;28;20071;-73
2023/01/18 07:00:04;;;;;;;8.10;5.45;;;;;;;-1.98;100.00;96086.91;4207234;28;20035;-73
2023/01/18 07:02:05;;;;;;;12.48;6.18;;;;;;;-1.98;100.00;96091.53;4218461;28;20378;-73
2023/01/18 07:04:06;;;;;;;12.15;6.40;;;;;;;-1.96;100.00;96094.66;4219696;28;20024;-73
2023/01/18 07:06:07;;;;;;;12.85;6.45;;;;;;;-1.97;100.00;96093.09;4205563;28;20036;-73
2023/01/18 07:08:07;;;;;;;10.65;6.10;;;;;;;-1.98;100.00;96105.09;4203211;28;20039;-73
2023/01/18 07:10:08;;;;;;;10.07;6.35;;;;;;;-1.97;100.00;96109.34;4203401;28;20475;-73
2023/01/18 07:12:08;;;;;;;9.55;6.10;;;;;;;-1.94;100.00;96118.69;4207797;28;20023;-73
2023/01/18 07:14:10;;;;;;;9.45;5.38;;;;;;;-1.93;100.00;96110.19;4217441;28;20046;-73
2023/01/18 07:16:16;;;;;;;12.17;5.47;;;;;;;-1.91;100.00;96112.56;4207710;28;20023;-73
2023/01/18 07:18:16;;;;;;;11.77;5.32;;;;;;;-1.92;100.00;96114.47;4203076;28;20028;-73
2023/01/18 07:20:18;;;;;;;9.65;4.43;;;;;;;-1.90;100.00;96117.66;4216217;28;20032;-73
2023/01/18 07:22:18;;;;;;;15.07;6.45;;;;;;;-1.90;100.00;96123.06;4218179;28;20475;-73
2023/01/18 07:24:19;;;;;;;11.13;5.95;;;;;;;-1.94;100.00;96118.69;4211984;27;20051;-73
2023/01/18 07:26:19;;;;;;;10.88;5.55;;;;;;;-1.95;100.00;96127.97;4202877;28;20043;-73
2023/01/18 07:28:19;;;;;;;10.30;6.00;;;;;;;-1.94;100.00;96124.13;4202607;28;20032;-73
2023/01/18 07:30:20;;;;;;;11.23;5.35;;;;;;;-1.94;100.00;96133.03;4203351;28;20088;-73
2023/01/18 07:32:20;;;;;;;11.18;5.80;;;;;;;-1.94;100.00;96137.66;4203308;28;20103;-73
2023/01/18 07:34:20;;;;;;;7.65;4.63;;;;;;;-1.93;100.00;96136.53;4208982;28;20055;-73
2023/01/18 07:36:21;;;;;;;7.93;5.00;;;;;;;-1.91;100.00;96142.38;4218374;28;20068;-73
2023/01/18 07:38:22;;;;;;;7.18;4.15;;;;;;;-1.83;100.00;96144.09;4219268;28;20096;-73
2023/01/18 07:40:23;;;;;;;6.53;4.13;;;;;;;-1.82;100.00;96143.75;4207510;28;20456;-73
2023/01/18 07:42:23;;;;;;;9.25;4.72;;;;;;;-1.82;100.00;96145.66;4202942;28;20064;-73
2023/01/18 07:44:23;;;;;;;10.65;4.80;;;;;;;-1.86;100.00;96142.88;4202488;28;20085;-73
2023/01/18 07:46:25;;;;;;;9.43;4.75;;;;;;;-1.90;100.00;96147.47;4203557;28;20646;-73
2023/01/18 07:48:26;;;;;;;9.93;4.65;;;;;;;-1.90;100.00;96144.75;4202679;28;20376;-73
2023/01/18 07:50:26;;;;;;;8.65;4.45;;;;;;;-1.90;100.00;96150.16;4203630;28;20040;-73
2023/01/18 07:52:27;;;;;;;10.98;5.18;;;;;;;-1.89;100.00;96157.16;4218791;28;20050;-73
2023/01/18 07:54:27;;;;;;;10.70;5.32;;;;;;;-1.89;100.00;96145.53;4216864;28;20049;-73
2023/01/18 07:56:27;;;;;;;12.52;4.82;;;;;;;-1.85;100.00;96157.22;4218139;28;20089;-73
2023/01/18 07:58:28;;;;;;;9.93;5.30;;;;;;;-1.84;100.00;96165.00;4210380;28;20039;-73
2023/01/18 08:00:28;;;;;;;10.70;5.15;;;;;;;-1.87;100.00;96162.22;4203440;28;20052;-73
2023/01/18 08:02:29;;;;;;;10.65;5.55;;;;;;;-1.83;100.00;96163.84;4210805;28;20487;-73
2023/01/18 08:04:29;;;;;;;14.48;6.00;;;;;;;-1.85;100.00;96168.84;4201543;28;20306;-73
2023/01/18 08:06:29;;;;;;;9.70;5.50;;;;;;;-1.84;100.00;96169.63;4203110;28;20075;-73
2023/01/18 08:08:30;;;;;;;8.98;5.28;;;;;;;-1.83;100.00;96176.63;4209998;28;20407;-72
2023/01/18 08:10:30;;;;;;;8.27;5.22;;;;;;;-1.83;100.00;96182.81;4217832;28;20085;-72
2023/01/18 08:12:31;;;;;;;10.93;5.20;;;;;;;-1.80;100.00;96173.22;4217307;28;20091;-72
2023/01/18 08:14:31;;;;;;;17.10;7.40;;;;;;;-1.77;100.00;96186.06;4217595;28;20120;-72
2023/01/18 08:16:31;;;;;;;12.68;6.88;;;;;;;-1.76;100.00;96182.22;4204715;28;20055;-72
2023/01/18 08:18:32;;;;;;;12.15;4.78;;;;;;;-1.79;100.00;96185.63;4204242;28;20043;-72
2023/01/18 08:20:33;;;;;;;7.93;4.70;;;;;;;-1.80;100.00;96190.28;4218093;28;20079;-72
2023/01/18 08:22:34;;;;;;;9.35;4.53;;;;;;;-1.74;100.00;96194.28;4215792;28;20135;-73
2023/01/18 08:24:35;;;;;;;10.15;4.55;;;;;;;-1.73;100.00;96193.16;4217346;28;20044;-72
2023/01/18 08:26:35;;;;;;;8.40;4.57;;;;;;;-1.72;100.00;96189.28;4217883;28;20051;-72
2023/01/18 08:28:36;;;;;;;7.47;4.07;;;;;;;-1.68;100.00;96194.00;4217551;28;20464;-72
2023/01/18 08:30:40;;;;;;;7.70;4.32;;;;;;;-1.68;100.00;96194.78;4217185;28;20040;-72
2023/01/18 08:32:41;;;;;;;10.30;4.20;;;;;;;-1.68;100.00;96205.63;4202699;28;20070;-72
2023/01/18 08:34:41;;;;;;;8.10;4.45;;;;;;;-1.62;100.00;96214.28;4208657;28;20135;-72
2023/01/18 08:36:41;;;;;;;11.32;5.25;;;;;;;-1.65;100.00;96206.88;4210925;28;20852;-72
2023/01/18 08:38:45;;;;;;;7.32;3.58;;;;;;;-1.64;100.00;96211.94;4201953;28;20135;-72
2023/01/18 08:40:46;;;;;;;6.65;3.53;;;;;;;-1.62;100.00;96212.34;4217990;28;20043;-72
2023/01/18 08:42:46;;;;;;;7.63;3.85;;;;;;;-1.58;100.00;96215.13;4220841;28;20382;-72
2023/01/18 08:44:47;;;;;;;10.20;4.70;;;;;;;-1.57;100.00;96217.50;4218948;28;20089;-72
2023/01/18 08:46:47;;;;;;;7.43;4.35;;;;;;;-1.58;100.00;96228.69;4220896;28;20082;-72
2023/01/18 08:48:52;;;;;;;9.43;4.93;;;;;;;-1.56;100.00;96224.50;4221618;28;20301;-72
2023/01/18 08:50:53;;;;;;;16.70;8.10;;;;;;;-1.53;100.00;96228.41;4205101;28;20052;-72
2023/01/18 08:52:53;;;;;;;12.57;6.80;;;;;;;-1.50;100.00;96233.13;4204729;28;20047;-72
2023/01/18 08:54:54;;;;;;;10.40;5.22;;;;;;;-1.44;100.00;96237.16;4205445;28;20040;-72
2023/01/18 08:56:54;;;;;;;13.20;6.78;;;;;;;-1.46;100.00;96234.00;4206079;28;20044;-72
2023/01/18 08:58:55;;;;;;;7.70;5.03;;;;;;;-1.45;100.00;96235.56;4205435;28;20519;-72
2023/01/18 09:00:55;;;;;;;13.98;8.73;;;;;;;-1.41;100.00;96239.13;4208655;28;20032;-72
2023/01/18 09:02:56;;;;;;;9.75;5.88;;;;;;;-1.39;100.00;96233.38;4220457;28;20116;-72
2023/01/18 09:04:57;;;;;;;21.88;10.50;;;;;;;-1.39;100.00;96250.44;4220410;28;20125;-72
2023/01/18 09:06:57;;;;;;;10.52;5.72;;;;;;;-1.34;100.00;96252.06;4208680;28;20072;-72
2023/01/18 09:08:58;;;;;;;7.15;3.40;;;;;;;-1.35;100.00;96247.78;4205184;28;20434;-72
2023/01/18 09:11:04;;;;;;;6.22;3.28;;;;;;;-1.32;100.00;96250.59;4208749;28;20458;-72
2023/01/18 09:13:05;;;;;;;5.95;4.00;;;;;;;-1.33;100.00;96254.44;4219507;27;20047;-72
2023/01/18 09:15:06;;;;;;;6.72;4.05;;;;;;;-1.31;100.00;96263.03;4217852;28;20039;-72
2023/01/18 09:17:06;;;;;;;7.65;3.88;;;;;;;-1.32;100.00;96261.44;4217686;28;20491;-72
2023/01/18 09:19:07;;;;;;;5.75;3.45;;;;;;;-1.25;100.00;96267.00;4220701;28;20345;-72
2023/01/18 09:21:09;;;;;;;5.80;3.35;;;;;;;-1.20;100.00;96269.44;4220410;28;20051;-72
2023/01/18 09:23:09;;;;;;;7.88;4.50;;;;;;;-1.22;100.00;96271.75;4212730;28;20067;-72
2023/01/18 09:25:10;;;;;;;5.45;3.38;;;;;;;-1.22;97.71;96271.75;4205305;28;20036;-72
2023/01/18 09:27:10;;;;;;;5.97;2.90;;;;;;;-1.18;97.28;96271.81;4205737;28;20091;-72
2023/01/18 09:29:11;;;;;;;8.75;3.28;;;;;;;-1.17;98.44;96284.22;4203426;28;20098;-72
2023/01/18 09:31:11;;;;;;;5.55;2.97;;;;;;;-1.13;98.00;96287.81;4205017;28;20062;-72
2023/01/18 09:33:11;;;;;;;4.95;2.58;;;;;;;-1.14;96.31;96283.53;4204854;28;20444;-72
2023/01/18 09:35:16;;;;;;;4.93;2.60;;;;;;;-1.14;95.55;96284.31;4210159;28;20760;-72
2023/01/18 09:37:17;;;;;;;7.15;4.07;;;;;;;-1.08;95.12;96297.59;4220111;28;20044;-72
2023/01/18 09:39:19;;;;;;;6.95;3.42;;;;;;;-1.06;95.83;96295.34;4217391;28;20040;-72
2023/01/18 09:41:42;;;;;;;5.15;3.53;;;;;;;-1.09;95.74;96296.81;4204664;28;20043;-72
2023/01/18 09:43:48;;;;;;;8.30;2.67;;;;;;;-1.15;95.76;96298.25;4216463;28;20055;-72
2023/01/18 09:45:48;;;;;;;3.95;2.75;;;;;;;-1.12;95.70;96294.81;4204416;28;20067;-72
2023/01/18 09:47:54;;;;;;;6.65;2.80;;;;;;;-1.10;97.54;96297.97;4204320;28;20032;-72
2023/01/18 09:49:57;;;;;;;6.10;2.45;;;;;;;-1.10;97.45;96297.16;4204988;28;20068;-72
2023/01/18 09:52:16;;;;;;;5.45;3.38;;;;;;;-1.07;98.35;96297.25;4204604;28;20051;-72
2023/01/18 09:54:46;;;;;;;5.68;2.97;;;;;;;-1.07;97.87;96302.69;4203411;28;20131;-72
2023/01/18 09:57:26;;;;;;;8.02;3.53;;;;;;;-1.04;98.83;96301.97;4204108;28;20036;-72
2023/01/18 09:59:36;;;;;;;3.92;2.63;;;;;;;-1.01;98.00;96301.25;4204410;28;20040;-72
2023/01/18 10:01:37;;;;;;;7.32;3.47;;;;;;;-1.00;98.48;96308.25;4204859;28;20052;-72